Latest Weather Observations for Thevenard Island

IDW60801

Issued at 5:53 pm WST Saturday 22 February 2020 (issued every 10 minutes, with the page automatically refreshed every 10 minutes)

About weather observations | Map of weather stations | Latest weather observations for WA | Other Formats
Station Details ID: 005084 Name: THEVENARD ISLAND Lat: -21.46 Lon: 115.02 Height: 5.0 m
Data from the previous 72 hours. | See also: Recent months at Thevenard Island
Date/Time
WST
Temp
°C
App
Temp
°C
Dew
Point
°C
Rel
Hum
%
Delta-T
°C
Wind Press
QNH
hPa
Press
MSL
hPa
Rain since
9am
mm
Dir  Spd
km/h
Gust
km/h
Spd
kts
Gust
kts
22/05:30pm 29.1 29.4 21.6 64 5.0 W 22 32 12 17 1008.6 - 0.0
22/05:00pm 30.0 30.4 21.7 61 5.6 W 22 32 12 17 1008.5 - 0.0
22/04:30pm 29.7 30.2 21.1 60 5.7 NW 20 28 11 15 1008.7 - 0.0
22/04:00pm 30.2 30.5 20.7 56 6.3 NW 20 26 11 14 1008.6 - 0.0
22/03:30pm 31.0 31.0 19.7 51 7.4 WSW 19 26 10 14 1008.8 - 0.0
22/03:00pm 31.7 32.5 20.6 51 7.4 WSW 17 20 9 11 1009.0 1009.0 0.0
22/02:30pm 31.3 32.0 19.6 49 7.7 WSW 15 19 8 10 1009.5 - 0.0
22/02:00pm 31.4 32.3 20.0 50 7.5 WSW 15 20 8 11 1009.9 - 0.0
22/01:30pm 30.6 31.9 20.8 56 6.5 SW 15 20 8 11 1010.2 - 0.0
22/01:00pm 30.4 31.6 20.0 53 6.8 WSW 13 19 7 10 1010.7 - 0.0
22/12:30pm 30.2 32.0 21.8 60 5.7 WSW 15 19 8 10 1011.1 - 0.0
22/12:00pm 29.7 32.1 22.9 67 4.6 SW 15 20 8 11 1011.5 1011.5 0.0
22/11:30am 29.2 31.6 22.9 69 4.3 WSW 15 22 8 12 1011.9 - 0.0
22/11:00am 29.5 31.6 22.5 66 4.8 WSW 15 20 8 11 1012.2 - 0.0
22/10:30am 29.2 31.8 22.7 68 4.4 SW 13 20 7 11 1012.4 - 0.0
22/10:00am 29.1 31.3 22.6 68 4.4 SW 15 19 8 10 1012.7 - 0.0
22/09:30am 29.0 31.6 22.7 69 4.3 SSW 13 17 7 9 1012.6 - 0.0
22/09:00am 28.4 31.1 22.9 72 3.7 S 13 19 7 10 1012.7 1012.7 0.0
22/08:30am 28.0 30.6 22.7 73 3.6 S 13 19 7 10 1012.6 - 0.0
22/08:00am 28.0 30.4 22.9 74 3.5 S 15 20 8 11 1012.3 - 0.0
22/07:30am 27.1 29.5 22.9 78 2.9 S 15 20 8 11 1012.0 - 0.0
22/07:00am 26.2 28.9 23.5 85 1.8 SW 15 19 8 10 1011.6 - 0.0
22/06:30am 25.6 27.8 23.3 87 1.6 WSW 17 22 9 12 1011.2 - 0.0
22/06:00am 25.5 27.7 23.2 87 1.6 WSW 17 22 9 12 1011.0 1011.0 0.0
22/05:30am 25.5 27.5 23.0 86 1.7 WSW 17 22 9 12 1010.8 - 0.0
22/05:00am 25.6 27.4 23.3 87 1.6 WSW 19 24 10 13 1010.6 - 0.0
22/04:30am 25.7 27.3 23.2 86 1.7 WSW 20 26 11 14 1010.4 - 0.0
22/04:00am 25.7 27.3 23.2 86 1.7 WSW 20 26 11 14 1010.5 - 0.0
22/03:30am 25.7 27.9 23.2 86 1.7 WSW 17 24 9 13 1010.5 - 0.0
22/03:00am 25.7 27.1 22.8 84 2.0 WSW 20 28 11 15 1010.5 1010.5 0.0
22/02:30am 25.9 27.6 23.0 84 2.0 W 19 24 10 13 1010.6 - 0.0
22/02:00am 26.1 28.3 23.2 84 2.0 WSW 17 24 9 13 1010.8 - 0.0
22/01:30am 26.1 27.3 23.2 84 2.0 WSW 22 28 12 15 1011.1 - 0.0
22/01:00am 26.1 27.4 23.4 85 1.8 WSW 22 30 12 16 1011.0 - 0.0
22/12:30am 26.1 26.7 23.4 85 1.8 WSW 26 33 14 18 1011.2 - 0.0
22/12:00am 26.2 27.4 23.9 87 1.6 WSW 24 33 13 18 1011.3 1011.3 0.0
 
Date/Time
WST
Temp
°C
App
Temp
°C
Dew
Point
°C
Rel
Hum
%
Delta-T
°C
Wind Press
QNH
hPa
Press
MSL
hPa
Rain since
9am
mm
Dir  Spd
km/h
Gust
km/h
Spd
kts
Gust
kts
21/11:30pm 26.3 27.7 24.2 88 1.4 WSW 24 33 13 18 1011.2 - 0.0
21/11:00pm 26.2 27.2 24.1 88 1.4 WSW 26 32 14 17 1011.3 - 0.0
21/10:30pm 26.4 27.9 24.4 89 1.4 WSW 24 32 13 17 1011.2 - 0.0
21/10:00pm 26.5 28.2 24.7 90 1.2 WSW 24 32 13 17 1011.1 - 0.0
21/09:30pm 26.4 27.4 24.1 87 1.6 WSW 26 33 14 18 1010.9 - 0.0
21/09:00pm 26.5 27.0 24.0 86 1.7 W 28 35 15 19 1010.5 1010.5 0.0
21/08:30pm 26.5 27.4 24.0 86 1.7 W 26 37 14 20 1010.0 - 0.0
21/08:00pm 26.5 27.1 24.2 87 1.6 W 28 35 15 19 1009.5 - 0.0
21/07:30pm 26.6 27.5 23.9 85 1.9 W 26 37 14 20 1009.1 - 0.0
21/07:00pm 26.8 27.7 23.9 84 2.0 W 26 39 14 21 1008.7 - 0.0
21/06:30pm 27.5 28.1 23.5 79 2.7 W 26 37 14 20 1008.4 - 0.0
21/06:00pm 28.2 28.8 24.2 79 2.8 W 28 37 15 20 1007.9 1007.9 0.0
21/05:30pm 29.0 30.7 24.6 77 3.1 W 24 32 13 17 1007.6 - 0.0
21/05:00pm 29.0 30.7 24.6 77 3.1 WSW 24 32 13 17 1007.4 - 0.0
21/04:30pm 29.3 31.5 24.8 77 3.1 WSW 22 30 12 16 1007.5 - 0.0
21/04:00pm 29.6 31.7 25.3 77 3.0 WSW 24 30 13 16 1007.6 - 0.0
21/03:30pm 29.7 31.5 25.4 78 3.0 WSW 26 32 14 17 1007.7 - 0.0
21/03:00pm 29.8 31.3 24.9 75 3.4 WSW 26 33 14 18 1007.8 1007.8 0.0
21/02:30pm 30.2 32.5 25.0 73 3.7 W 22 33 12 18 1008.2 - 0.0
21/02:00pm 30.3 32.5 24.9 73 3.8 W 22 32 12 17 1008.5 - 0.0
21/01:30pm 30.9 33.6 25.7 74 3.7 W 22 33 12 18 1008.9 - 0.0
21/01:00pm 30.6 32.7 25.4 74 3.7 WNW 24 32 13 17 1009.3 - 0.0
21/12:30pm 30.7 33.6 25.1 72 3.9 WNW 19 28 10 15 1009.6 - 0.0
21/12:00pm 30.7 33.7 25.5 74 3.7 NW 20 35 11 19 1009.7 1009.7 0.0
21/11:30am 30.4 33.9 25.5 75 3.5 NW 17 24 9 13 1009.9 - 0.0
21/11:00am 31.3 35.2 26.1 74 3.7 WNW 17 24 9 13 1010.0 - 0.0
21/10:30am 30.3 33.8 25.4 75 3.5 WNW 17 20 9 11 1010.3 - 0.0
21/10:00am 30.5 34.5 26.2 78 3.1 WNW 17 24 9 13 1010.4 - 0.0
21/09:30am 29.4 33.2 26.4 84 2.1 WNW 19 26 10 14 1010.4 - 0.0
21/09:00am 29.0 32.6 25.6 82 2.4 WNW 17 24 9 13 1010.2 1010.2 0.0
21/08:30am 29.0 33.2 26.0 84 2.1 W 15 20 8 11 1010.1 - 0.0
21/08:00am 28.3 32.9 26.5 90 1.3 W 15 20 8 11 1009.9 - 0.0
21/07:30am 27.4 32.5 26.7 96 0.5 W 13 19 7 10 1009.6 - 0.0
21/07:00am 26.3 31.5 26.3 100 0.0 W 11 15 6 8 1009.1 - 0.0
21/06:30am 25.3 29.9 25.3 100 0.0 WNW 11 11 6 6 1008.6 - 0.0
21/06:00am 25.2 30.5 25.0 99 0.1 WNW 6 11 3 6 1008.3 1008.3 0.0
21/05:30am 25.9 32.4 25.7 99 0.1 WNW 2 6 1 3 1008.2 - 0.0
21/05:00am 26.0 31.3 25.8 99 0.1 WNW 9 11 5 6 1007.7 - 0.0
21/04:30am 26.4 31.2 26.2 99 0.1 NW 13 15 7 8 1007.4 - 0.0
21/04:00am 26.7 31.3 26.5 99 0.1 NW 15 19 8 10 1007.5 - 0.0
21/03:30am 26.9 31.4 26.4 97 0.4 NNW 15 22 8 12 1007.6 - 0.0
21/03:00am 27.0 31.0 26.7 98 0.2 N 19 22 10 12 1007.7 1007.7 0.0
21/02:30am 27.0 31.0 26.8 99 0.1 N 19 24 10 13 1007.8 - 0.0
21/02:00am 27.1 31.0 26.9 99 0.1 NNE 20 26 11 14 1008.0 - 0.0
21/01:30am 27.2 31.2 27.0 99 0.1 NNE 20 28 11 15 1008.4 - 0.0
21/01:00am 27.3 30.6 27.1 99 0.1 NE 24 30 13 16 1008.6 - 0.0
21/12:30am 27.6 31.3 27.1 97 0.4 NNE 22 28 12 15 1008.7 - 0.0
21/12:00am 28.6 33.0 27.4 93 0.9 ENE 19 24 10 13 1008.7 1008.7 0.0
 
Date/Time
WST
Temp
°C
App
Temp
°C
Dew
Point
°C
Rel
Hum
%
Delta-T
°C
Wind Press
QNH
hPa
Press
MSL
hPa
Rain since
9am
mm
Dir  Spd
km/h
Gust
km/h
Spd
kts
Gust
kts
20/11:30pm 29.3 33.2 26.9 87 1.7 E 20 26 11 14 1008.8 - 0.0
20/11:00pm 28.1 33.0 27.0 94 0.8 WSW 15 22 8 12 1008.6 - 0.0
20/10:30pm 27.8 32.0 27.1 96 0.5 WSW 19 26 10 14 1008.6 - 0.0
20/10:00pm 27.6 31.7 26.9 96 0.5 W 19 28 10 15 1008.6 - 0.0
20/09:30pm 27.4 31.2 26.7 96 0.5 WSW 20 28 11 15 1008.6 - 0.0
20/09:00pm 27.3 30.7 26.2 94 0.8 W 20 26 11 14 1008.3 1008.3 0.0
20/08:30pm 27.2 30.6 26.1 94 0.8 W 20 28 11 15 1008.1 - 0.0
20/08:00pm 27.2 30.2 26.1 94 0.8 W 22 28 12 15 1007.8 - 0.0
20/07:30pm 27.4 30.1 26.3 94 0.8 WSW 24 32 13 17 1007.1 - 0.0
20/07:00pm 27.3 29.6 25.7 91 1.1 WSW 24 32 13 17 1006.5 - 0.0
20/06:30pm 27.8 29.9 25.4 87 1.7 W 24 32 13 17 1005.9 - 0.0
20/06:00pm 28.3 29.2 25.3 84 2.1 W 30 37 16 20 1005.7 1005.7 0.0
20/05:30pm 29.1 30.4 25.9 83 2.3 W 30 39 16 21 1005.3 - 0.0
20/05:00pm 29.5 30.6 25.5 79 2.8 W 30 41 16 22 1004.9 - 0.0
20/04:30pm 30.0 30.3 25.7 78 3.0 W 35 46 19 25 1004.8 - 0.0
20/04:00pm 30.6 31.2 25.7 75 3.5 W 33 43 18 23 1004.7 - 0.0
20/03:30pm 31.5 33.0 25.6 71 4.2 W 28 37 15 20 1005.0 - 0.0
20/03:00pm 31.7 33.0 25.3 69 4.5 W 28 37 15 20 1005.5 1005.5 0.0
20/02:30pm 31.5 33.0 25.6 71 4.2 W 28 35 15 19 1006.0 - 0.0
20/02:00pm 30.7 32.5 26.0 76 3.3 W 28 33 15 18 1006.2 - 0.0
20/01:30pm 31.3 33.9 26.6 76 3.4 WSW 26 32 14 17 1006.5 - 0.0
20/01:00pm 30.6 32.8 26.1 77 3.2 WSW 26 33 14 18 1006.6 - 0.0
20/12:30pm 30.9 33.3 26.4 77 3.2 WSW 26 32 14 17 1007.0 - 0.0
20/12:00pm 30.6 34.4 26.7 80 2.8 WSW 20 26 11 14 1007.3 1007.3 0.0
20/11:30am 30.6 33.8 26.5 79 2.9 WSW 22 28 12 15 1007.4 - 0.0
20/11:00am 30.5 33.9 26.7 80 2.7 WSW 22 28 12 15 1007.7 - 0.0
20/10:30am 29.9 33.1 26.5 82 2.4 WSW 22 28 12 15 1007.9 - 0.0
20/10:00am 29.4 32.8 26.2 83 2.3 WSW 20 28 11 15 1008.0 - 0.0
20/09:30am 29.4 33.1 26.6 85 2.0 WSW 20 24 11 13 1008.0 - 0.0
20/09:00am 29.0 33.1 26.4 86 1.9 WSW 17 20 9 11 1007.7 1007.7 0.0
20/08:30am 28.7 32.9 26.5 88 1.6 WSW 17 20 9 11 1007.8 - 0.0
20/08:00am 28.4 33.7 27.0 92 1.0 W 13 15 7 8 1007.4 - 0.0
20/07:30am 27.8 33.8 27.5 98 0.2 WSW 11 15 6 8 1007.3 - 0.0
20/07:00am 27.3 33.2 27.3 100 0.0 WSW 11 13 6 7 1007.4 - 0.0
20/06:30am 26.7 31.8 26.7 100 0.0 SW 13 17 7 9 1007.2 - 0.0
20/06:00am 26.7 31.0 26.7 100 0.0 WSW 17 20 9 11 1007.0 1007.0 0.0
20/05:30am 26.8 31.6 26.8 100 0.0 WSW 15 19 8 10 1006.6 - 0.0
20/05:00am 26.7 31.3 26.5 99 0.1 W 15 19 8 10 1006.4 - 0.0
20/04:30am 26.3 31.6 25.8 97 0.4 W 9 11 5 6 1006.1 - 0.0
20/04:00am 27.0 32.7 26.5 97 0.4 WSW 9 13 5 7 1006.2 - 0.0
20/03:30am 27.1 33.0 26.2 95 0.6 WSW 7 9 4 5 1006.3 - 0.0
20/03:00am 27.4 33.0 25.8 91 1.1 S 7 9 4 5 1006.2 1006.2 0.0
20/02:30am 28.2 33.1 25.8 87 1.7 SSW 11 11 6 6 1006.4 - 0.0
20/02:00am 28.4 33.3 26.4 89 1.4 SSW 13 17 7 9 1006.4 - 0.0
20/01:30am 28.2 32.4 26.0 88 1.6 SSW 15 15 8 8 1006.7 - 0.0
20/01:00am 28.2 32.4 26.0 88 1.6 SSW 15 19 8 10 1007.1 - 0.0
20/12:30am 28.4 31.8 25.8 86 1.8 SSW 19 22 10 12 1007.3 - 0.0
20/12:00am 28.6 31.4 25.8 85 2.0 SSW 22 28 12 15 1007.5 1007.5 0.0
 
Date/Time
WST
Temp
°C
App
Temp
°C
Dew
Point
°C
Rel
Hum
%
Delta-T
°C
Wind Press
QNH
hPa
Press
MSL
hPa
Rain since
9am
mm
Dir  Spd
km/h
Gust
km/h
Spd
kts
Gust
kts
19/11:30pm 28.5 31.2 26.3 88 1.6 SSW 24 30 13 16 1007.6 - 0.0
19/11:00pm 28.4 31.0 26.6 90 1.3 SW 26 32 14 17 1007.2 - 0.0
19/10:30pm 28.3 31.4 27.4 95 0.6 SW 26 33 14 18 1007.1 - 0.0
19/10:00pm 28.0 31.4 27.3 96 0.5 WSW 24 32 13 17 1006.9 - 0.0
19/09:30pm 27.6 31.4 26.7 95 0.6 WSW 20 26 11 14 1006.7 - 0.0
19/09:00pm 27.6 31.9 26.7 95 0.6 WSW 17 22 9 12 1006.9 1006.9 0.0
19/08:30pm 27.6 31.9 26.7 95 0.6 WSW 17 22 9 12 1006.6 - 0.0
19/08:00pm 27.5 30.4 26.6 95 0.6 SW 24 30 13 16 1006.5 - 0.0
19/07:30pm 27.2 29.6 26.3 95 0.6 SW 26 35 14 19 1006.3 - 0.0
19/07:00pm 27.2 29.0 26.1 94 0.8 SW 28 37 15 20 1005.9 - 0.0
19/06:30pm 27.9 29.4 25.5 87 1.7 W 28 39 15 21 1004.7 - 0.0
19/06:00pm 28.5 29.1 25.3 83 2.3 W 32 44 17 24 1004.2 1004.2 0.0

Other formats

Comma delimited format used in spreadsheet applications
http://www.bom.gov.au/fwo/IDW60801/IDW60801.94303.axf

JavaScript Object Notation format (JSON) in row-major order
http://www.bom.gov.au/fwo/IDW60801/IDW60801.94303.json

Data quality

Most of these data are generated automatically and are frequently updated. Quality checks on data are not normally performed. It is possible for incorrect values to appear. Refer to information at About Latest Weather Observations and please check the disclaimer before using these data.